KMRY/MRY METAR and TAF weather

Enter ICAO airport designator
Station Type Date Time Source
KMRY METAR 2021/05/11 22:54 UTC NOAA

KMRY 112254Z 28009KT 10SM CLR 19/10 A2994 RMK AO2 SLP150 T01890100


Station Type Date Time Source
KMRY Decoded METAR 2021/05/11 22:54 UTC NOAA

MONTEREY PENINSULA AIRPORT, CA, United States (KMRY) 36-35N 121-51W 66M
May 11, 2021 - 06:54 PM EDT / 2021.05.11 2254 UTC
Wind: from the W (280 degrees) at 10 MPH (9 KT):0
Visibility: 10 mile(s):0
Sky conditions: clear
Temperature: 66.0 F (18.9 C)
Dew Point: 50.0 F (10.0 C)
Relative Humidity: 56%
Pressure (altimeter): 29.94 in. Hg (1013 hPa)
ob: KMRY 112254Z 28009KT 10SM CLR 19/10 A2994 RMK AO2 SLP150 T01890100
cycle: 23

Station Type Date Time Source
KMRY TAF 2021/05/11 20:30 UTC NOAA

TAF
AMD KMRY 112027Z 1120/1218 28005KT P6SM FEW006
FM112100 28011KT P6SM SKC
FM120000 VRB05KT P6SM SCT006
TEMPO 1200/1204 P6SM BKN006
FM120500 VRB03KT 4SM BR BKN006
TEMPO 1211/1215 1SM BR OVC005
FM121700 VRB03KT P6SM SCT006

Example: see airport list